Time;durP1;ratioP1;P1;durP2;ratioP2;P2;SDS_P1;SDS_P2;PMS_P1;PMS_P2;Temp;Humidity;BMP_temperature;BMP_pressure;BME280_temperature;BME280_humidity;BME280_pressure;Samples;Min_cycle;Max_cycle;Signal;HPM_P1;HPM_P2
2023/12/17 00:01:01;;;;;;;27.43;13.80;;;4.60;96.70;;;;;;5072982;28;20039;-71
2023/12/17 00:03:27;;;;;;;24.53;12.20;;;4.50;96.90;;;;;;5072610;28;20431;-71
2023/12/17 00:05:53;;;;;;;21.87;11.50;;;4.60;97.30;;;;;;5072649;28;20032;-72
2023/12/17 00:08:20;;;;;;;24.47;12.67;;;4.60;97.20;;;;;;5072427;28;20083;-71
2023/12/17 00:10:49;;;;;;;18.97;11.57;;;4.60;97.10;;;;;;5073028;28;20424;-71
2023/12/17 00:13:16;;;;;;;22.90;12.80;;;4.50;97.10;;;;;;5072801;28;20025;-71
2023/12/17 00:15:41;;;;;;;24.97;11.20;;;4.50;97.10;;;;;;5072625;28;20056;-71
2023/12/17 00:18:08;;;;;;;20.50;10.53;;;4.50;97.40;;;;;;5072300;28;20412;-71
2023/12/17 00:20:34;;;;;;;20.00;11.30;;;4.50;97.50;;;;;;5054754;28;20369;-71
2023/12/17 00:23:00;;;;;;;20.63;11.03;;;4.40;97.30;;;;;;5072687;28;20089;-71
2023/12/17 00:25:26;;;;;;;22.73;11.40;;;4.40;97.40;;;;;;5072642;28;20035;-71
2023/12/17 00:27:51;;;;;;;20.70;9.97;;;4.40;97.50;;;;;;5072394;28;20044;-71
2023/12/17 00:30:17;;;;;;;17.20;9.53;;;4.40;97.80;;;;;;5072352;28;20035;-71
2023/12/17 00:32:43;;;;;;;19.93;9.07;;;4.30;97.70;;;;;;5072442;28;20028;-71
2023/12/17 00:35:08;;;;;;;17.43;9.13;;;4.30;97.80;;;;;;5072582;28;20033;-71
2023/12/17 00:37:34;;;;;;;21.00;10.60;;;4.30;97.90;;;;;;5072206;28;20103;-71
2023/12/17 00:40:00;;;;;;;20.17;9.33;;;4.40;98.20;;;;;;5072148;28;20037;-71
2023/12/17 00:42:26;;;;;;;16.40;8.97;;;4.40;98.20;;;;;;5054516;28;20021;-70
2023/12/17 00:44:51;;;;;;;16.20;8.50;;;4.40;98.20;;;;;;5072618;28;20041;-70
2023/12/17 00:47:17;;;;;;;14.03;8.20;;;4.40;98.40;;;;;;5072765;28;20028;-71
2023/12/17 00:49:43;;;;;;;16.33;8.13;;;4.40;98.50;;;;;;5072560;28;20029;-71
2023/12/17 00:52:08;;;;;;;15.13;8.03;;;4.40;98.50;;;;;;5072343;28;20029;-71
2023/12/17 00:54:34;;;;;;;14.90;8.40;;;4.40;98.70;;;;;;5072499;28;20424;-71
2023/12/17 00:57:00;;;;;;;16.03;9.23;;;4.40;98.50;;;;;;5072400;28;20024;-71
2023/12/17 00:59:26;;;;;;;20.67;10.67;;;4.40;98.20;;;;;;5072024;28;20033;-72
2023/12/17 01:01:52;;;;;;;18.57;9.60;;;4.40;98.20;;;;;;5054601;28;20108;-71
2023/12/17 01:04:17;;;;;;;14.53;7.67;;;4.40;98.30;;;;;;5072306;28;20028;-71
2023/12/17 01:06:43;;;;;;;11.03;7.07;;;4.40;98.60;;;;;;5072081;28;20499;-72
2023/12/17 01:09:10;;;;;;;11.87;7.70;;;4.40;98.40;;;;;;5072098;28;20048;-71
2023/12/17 01:11:36;;;;;;;16.60;8.37;;;4.40;98.50;;;;;;5072243;28;20028;-71
2023/12/17 01:14:02;;;;;;;15.37;7.93;;;4.40;98.20;;;;;;5071983;28;20500;-71
2023/12/17 01:16:30;;;;;;;15.67;7.70;;;4.40;98.20;;;;;;5072044;28;20032;-71
2023/12/17 01:18:55;;;;;;;12.40;6.80;;;4.40;98.40;;;;;;5071873;28;20036;-71
2023/12/17 01:21:21;;;;;;;11.43;6.20;;;4.40;98.50;;;;;;5072119;28;20353;-71
2023/12/17 01:23:47;;;;;;;11.93;5.40;;;4.40;98.50;;;;;;5072152;28;20031;-72
2023/12/17 01:26:23;;;;;;;8.90;5.53;;;4.40;98.60;;;;;;5072101;28;20025;-72
2023/12/17 01:28:52;;;;;;;10.87;5.77;;;4.50;98.60;;;;;;5072081;28;20114;-72
2023/12/17 01:31:17;;;;;;;11.10;4.90;;;4.50;98.70;;;;;;5072076;28;20021;-71
2023/12/17 01:33:43;;;;;;;7.37;4.50;;;4.50;98.70;;;;;;5072052;28;20050;-72
2023/12/17 01:36:09;;;;;;;10.17;4.20;;;4.50;98.70;;;;;;5072139;28;20024;-72
2023/12/17 01:38:35;;;;;;;11.60;4.80;;;4.60;98.70;;;;;;5071578;28;20047;-72
2023/12/17 01:41:01;;;;;;;16.30;7.20;;;4.60;98.50;;;;;;5071947;28;20107;-73
2023/12/17 01:43:27;;;;;;;16.80;8.63;;;4.70;98.40;;;;;;5071968;28;20097;-73
2023/12/17 01:45:54;;;;;;;16.97;8.00;;;4.70;97.80;;;;;;5071993;28;20056;-72
2023/12/17 01:48:25;;;;;;;15.43;8.77;;;4.60;97.20;;;;;;5071526;28;20024;-73
2023/12/17 01:50:52;;;;;;;14.23;8.20;;;4.60;97.20;;;;;;5071842;28;20396;-73
2023/12/17 01:53:18;;;;;;;15.03;8.50;;;4.60;97.00;;;;;;5071833;28;20055;-73
2023/12/17 01:55:46;;;;;;;14.77;8.33;;;4.50;96.90;;;;;;5054412;28;20041;-73
2023/12/17 01:58:14;;;;;;;17.80;8.17;;;4.40;97.10;;;;;;5053837;28;20370;-73
2023/12/17 02:00:40;;;;;;;15.03;8.47;;;4.40;97.40;;;;;;5052513;28;20032;-72
2023/12/17 02:03:06;;;;;;;21.57;11.20;;;4.40;97.20;;;;;;5052826;28;20021;-73
2023/12/17 02:05:35;;;;;;;19.83;10.93;;;4.30;97.20;;;;;;5054461;28;20103;-73
2023/12/17 02:08:03;;;;;;;14.93;8.70;;;4.30;97.30;;;;;;5054888;28;20503;-72
2023/12/17 02:10:29;;;;;;;16.00;8.20;;;4.20;97.60;;;;;;5055291;28;20442;-72
2023/12/17 02:12:55;;;;;;;16.07;7.57;;;4.20;97.80;;;;;;5054934;28;20516;-72
2023/12/17 02:15:20;;;;;;;11.43;7.00;;;4.20;98.00;;;;;;5055185;28;20059;-72
2023/12/17 02:17:46;;;;;;;19.30;8.03;;;4.20;98.20;;;;;;5055102;28;20462;-73
2023/12/17 02:20:12;;;;;;;15.87;7.80;;;4.20;98.30;;;;;;5054650;28;20187;-72
2023/12/17 02:22:38;;;;;;;16.17;8.53;;;4.20;98.50;;;;;;5054937;28;20036;-73
2023/12/17 02:25:06;;;;;;;15.93;9.00;;;4.20;98.30;;;;;;5054553;28;20377;-72
2023/12/17 02:27:32;;;;;;;12.57;7.47;;;4.10;98.20;;;;;;5021526;28;20441;-73
2023/12/17 02:29:57;;;;;;;16.43;7.20;;;4.10;98.30;;;;;;5034878;28;20025;-72
2023/12/17 02:32:23;;;;;;;18.00;9.87;;;4.10;98.40;;;;;;5034564;28;20025;-73
2023/12/17 02:34:50;;;;;;;21.10;11.70;;;4.10;98.50;;;;;;5034784;28;20028;-73
2023/12/17 02:37:16;;;;;;;22.67;11.97;;;4.10;98.00;;;;;;5034256;28;20559;-73
2023/12/17 02:39:42;;;;;;;23.90;12.90;;;4.00;97.80;;;;;;5034793;28;20124;-72
2023/12/17 02:42:08;;;;;;;24.30;12.57;;;4.00;97.80;;;;;;5033219;28;20444;-72
2023/12/17 02:44:34;;;;;;;23.97;11.60;;;4.00;97.80;;;;;;5034450;28;20039;-73
2023/12/17 02:47:00;;;;;;;23.60;12.83;;;4.00;97.80;;;;;;5034770;28;20349;-73
2023/12/17 02:49:27;;;;;;;20.93;10.93;;;3.90;97.80;;;;;;5016689;28;20025;-72
2023/12/17 02:51:54;;;;;;;23.00;10.60;;;3.90;97.90;;;;;;5034895;28;20382;-73
2023/12/17 02:54:23;;;;;;;15.47;8.87;;;3.90;97.90;;;;;;5034710;28;20033;-72
2023/12/17 02:56:51;;;;;;;18.97;9.33;;;3.80;98.10;;;;;;5034561;28;20028;-73
2023/12/17 02:59:16;;;;;;;14.13;7.67;;;3.80;98.30;;;;;;5034275;28;20037;-73
2023/12/17 03:01:43;;;;;;;11.70;7.00;;;3.70;98.40;;;;;;5034320;28;20501;-73
2023/12/17 03:04:12;;;;;;;13.33;7.03;;;3.80;98.60;;;;;;5034269;28;20389;-73
2023/12/17 03:06:38;;;;;;;11.27;5.77;;;3.70;98.70;;;;;;5034058;28;20516;-73
2023/12/17 03:09:05;;;;;;;10.17;5.40;;;3.80;98.90;;;;;;5031984;28;20053;-72
2023/12/17 03:11:31;;;;;;;10.93;4.93;;;3.80;99.00;;;;;;5033925;28;20025;-73
2023/12/17 03:13:56;;;;;;;8.43;4.77;;;3.80;99.00;;;;;;5034139;28;20040;-72
2023/12/17 03:16:24;;;;;;;8.53;4.43;;;3.80;99.10;;;;;;5034386;28;20030;-72
2023/12/17 03:18:50;;;;;;;11.90;4.90;;;3.80;99.20;;;;;;5033852;28;20034;-72
2023/12/17 03:21:15;;;;;;;8.43;4.80;;;3.80;99.20;;;;;;5033763;28;20032;-73
2023/12/17 03:23:41;;;;;;;14.17;5.93;;;3.90;99.30;;;;;;5032566;28;20107;-72
2023/12/17 03:26:07;;;;;;;9.17;5.03;;;3.90;99.00;;;;;;5033974;28;20032;-73
2023/12/17 03:28:33;;;;;;;11.17;5.83;;;3.80;99.00;;;;;;5034213;28;20021;-72
2023/12/17 03:30:59;;;;;;;12.57;6.67;;;3.80;99.10;;;;;;5051965;28;20032;-72
2023/12/17 03:33:25;;;;;;;13.87;7.57;;;3.80;99.10;;;;;;5053853;28;20025;-72
2023/12/17 03:35:50;;;;;;;12.67;7.30;;;3.80;99.20;;;;;;5053786;28;20071;-72
2023/12/17 03:38:16;;;;;;;11.70;7.13;;;3.80;99.10;;;;;;5053573;28;20043;-73
2023/12/17 03:40:42;;;;;;;12.40;6.80;;;3.80;98.90;;;;;;5053928;28;20473;-73
2023/12/17 03:43:08;;;;;;;14.53;7.63;;;3.70;99.00;;;;;;5053493;28;20022;-72
2023/12/17 03:45:35;;;;;;;14.20;8.10;;;3.70;98.90;;;;;;5053635;28;20458;-73
2023/12/17 03:48:02;;;;;;;16.13;9.80;;;3.60;98.70;;;;;;5053183;28;20024;-73
2023/12/17 03:50:28;;;;;;;13.87;8.30;;;3.60;98.90;;;;;;5053256;28;20024;-73
2023/12/17 03:52:54;;;;;;;17.30;9.07;;;3.60;99.00;;;;;;5053204;28;20021;-73
2023/12/17 03:55:20;;;;;;;15.53;8.80;;;3.60;99.20;;;;;;5053285;28;20107;-73
2023/12/17 03:57:47;;;;;;;17.30;9.90;;;3.60;99.30;;;;;;5053313;28;20076;-73
2023/12/17 04:00:14;;;;;;;19.70;9.87;;;3.60;99.30;;;;;;5053026;28;20124;-73
2023/12/17 04:02:40;;;;;;;16.00;9.50;;;3.50;98.80;;;;;;5053091;28;20028;-72
2023/12/17 04:05:07;;;;;;;19.20;9.20;;;3.50;98.90;;;;;;5053279;28;20021;-72
2023/12/17 04:07:33;;;;;;;19.83;9.93;;;3.50;99.20;;;;;;5070739;28;20025;-73
2023/12/17 04:10:03;;;;;;;19.47;11.27;;;3.50;99.30;;;;;;5072893;28;20053;-72
2023/12/17 04:12:29;;;;;;;22.40;11.27;;;3.50;99.30;;;;;;5072894;28;20025;-72
2023/12/17 04:14:55;;;;;;;16.83;9.63;;;3.50;99.50;;;;;;5073143;28;20031;-72
2023/12/17 04:17:21;;;;;;;14.83;8.53;;;3.50;99.50;;;;;;5073209;28;20024;-73
2023/12/17 04:19:47;;;;;;;15.50;7.73;;;3.50;99.20;;;;;;5072599;28;20040;-73
2023/12/17 04:22:12;;;;;;;16.67;8.10;;;3.50;99.00;;;;;;5072848;28;20016;-72
2023/12/17 04:24:39;;;;;;;15.70;7.90;;;3.50;99.10;;;;;;5072812;28;20025;-73
2023/12/17 04:27:06;;;;;;;15.73;7.67;;;3.50;98.90;;;;;;5072949;28;20421;-73
2023/12/17 04:29:32;;;;;;;12.87;7.07;;;3.40;98.70;;;;;;5072939;28;20104;-73
2023/12/17 04:31:57;;;;;;;12.43;7.20;;;3.40;98.70;;;;;;5072545;28;20048;-72
2023/12/17 04:34:23;;;;;;;11.80;7.00;;;3.30;98.90;;;;;;5072589;28;20044;-73
2023/12/17 04:36:49;;;;;;;14.67;7.27;;;3.30;99.10;;;;;;5072640;28;20021;-72
2023/12/17 04:39:15;;;;;;;12.50;6.97;;;3.30;99.10;;;;;;5072631;28;20032;-72
2023/12/17 04:41:41;;;;;;;11.20;6.00;;;3.30;99.20;;;;;;5072887;28;20111;-73
2023/12/17 04:44:07;;;;;;;14.10;6.80;;;3.30;99.40;;;;;;5072464;28;20533;-73
2023/12/17 04:46:34;;;;;;;13.33;7.43;;;3.30;99.60;;;;;;5054592;28;20021;-73
2023/12/17 04:49:00;;;;;;;10.90;6.00;;;3.30;99.40;;;;;;5072776;28;20107;-72
2023/12/17 04:51:25;;;;;;;13.17;6.87;;;3.30;99.30;;;;;;5072437;28;20492;-72
2023/12/17 04:53:51;;;;;;;13.47;6.27;;;3.30;99.50;;;;;;5072554;28;20024;-72
2023/12/17 04:56:18;;;;;;;10.87;5.67;;;3.30;99.70;;;;;;5072663;28;20020;-72
2023/12/17 04:58:44;;;;;;;17.13;6.17;;;3.30;99.70;;;;;;5072575;28;20097;-72
2023/12/17 05:01:10;;;;;;;9.93;5.93;;;3.30;99.90;;;;;;5064067;28;20464;-73
2023/12/17 05:03:36;;;;;;;10.90;6.07;;;3.20;99.90;;;;;;5072394;28;20119;-72
2023/12/17 05:06:02;;;;;;;8.53;5.03;;;3.30;99.90;;;;;;5072402;28;20028;-72
2023/12/17 05:08:28;;;;;;;13.70;6.50;;;3.30;99.90;;;;;;5072285;28;20037;-72
2023/12/17 05:10:54;;;;;;;12.37;5.93;;;3.30;99.80;;;;;;5072296;28;20387;-73
2023/12/17 05:13:21;;;;;;;12.17;5.80;;;3.30;99.80;;;;;;5072306;28;20075;-72
2023/12/17 05:15:46;;;;;;;14.67;6.37;;;3.30;99.80;;;;;;5072527;28;20021;-72
2023/12/17 05:18:12;;;;;;;13.40;6.73;;;3.30;99.80;;;;;;5072233;28;20032;-73
2023/12/17 05:20:38;;;;;;;10.73;7.07;;;3.30;99.70;;;;;;5072104;28;20086;-72
2023/12/17 05:23:04;;;;;;;13.60;6.90;;;3.30;99.50;;;;;;5072270;28;20029;-72
2023/12/17 05:25:30;;;;;;;11.73;6.30;;;3.20;99.50;;;;;;5072154;28;20035;-72
2023/12/17 05:27:55;;;;;;;13.53;6.43;;;3.20;99.60;;;;;;5071930;28;20028;-73
2023/12/17 05:30:22;;;;;;;10.53;5.97;;;3.20;99.60;;;;;;5072012;28;20060;-72
2023/12/17 05:32:48;;;;;;;12.57;5.93;;;3.20;99.60;;;;;;5058012;28;20048;-72
2023/12/17 05:35:14;;;;;;;9.20;5.60;;;3.20;99.70;;;;;;5042600;28;20040;-72
2023/12/17 05:37:40;;;;;;;11.33;5.73;;;3.20;99.70;;;;;;5045550;28;20478;-73
2023/12/17 05:40:07;;;;;;;12.30;5.07;;;3.20;99.80;;;;;;5047423;28;20163;-72
2023/12/17 05:42:34;;;;;;;11.03;5.67;;;3.20;99.90;;;;;;5035967;28;20032;-72
2023/12/17 05:45:00;;;;;;;14.17;5.80;;;3.20;99.90;;;;;;5035788;28;20112;-72
2023/12/17 05:47:26;;;;;;;11.13;5.27;;;3.20;99.90;;;;;;5017811;28;20470;-72
2023/12/17 05:49:52;;;;;;;12.43;5.47;;;3.10;99.90;;;;;;5035453;28;20033;-73
2023/12/17 05:52:18;;;;;;;7.27;4.43;;;3.10;99.90;;;;;;5035646;28;20096;-73
2023/12/17 05:54:44;;;;;;;8.63;4.70;;;3.10;99.90;;;;;;5035901;28;20116;-72
2023/12/17 05:57:10;;;;;;;9.93;4.77;;;3.10;99.90;;;;;;5035483;28;20030;-73
2023/12/17 05:59:36;;;;;;;8.97;5.23;;;3.10;99.90;;;;;;5035663;28;20048;-73
2023/12/17 06:02:02;;;;;;;11.07;4.37;;;3.10;99.90;;;;;;5035817;28;20026;-73
2023/12/17 06:04:27;;;;;;;8.03;4.37;;;3.10;99.90;;;;;;5035445;28;20079;-72
2023/12/17 06:06:55;;;;;;;10.20;4.37;;;3.10;99.90;;;;;;5035313;28;20087;-73
2023/12/17 06:09:22;;;;;;;9.97;4.50;;;3.10;99.90;;;;;;5048098;28;20055;-73
2023/12/17 06:11:49;;;;;;;7.13;3.87;;;3.10;99.90;;;;;;5054552;28;20029;-72
2023/12/17 06:14:16;;;;;;;10.90;4.40;;;3.20;99.90;;;;;;5055329;28;20035;-73
2023/12/17 06:16:42;;;;;;;6.77;3.70;;;3.20;99.90;;;;;;5054604;28;20074;-72
2023/12/17 06:19:07;;;;;;;6.20;3.77;;;3.20;99.90;;;;;;5055249;28;20241;-73
2023/12/17 06:21:33;;;;;;;10.60;5.00;;;3.20;99.90;;;;;;5055089;28;20088;-73
2023/12/17 06:23:59;;;;;;;10.50;5.37;;;3.20;99.90;;;;;;5054799;28;20029;-73
2023/12/17 06:26:25;;;;;;;12.13;6.20;;;3.30;99.90;;;;;;5039399;28;20036;-73
2023/12/17 06:28:51;;;;;;;13.83;6.33;;;3.30;99.90;;;;;;5040072;28;20021;-73
2023/12/17 06:31:17;;;;;;;12.33;6.67;;;3.30;99.90;;;;;;5043708;28;20018;-72
2023/12/17 06:33:43;;;;;;;11.83;5.93;;;3.30;99.90;;;;;;5034885;28;20491;-73
2023/12/17 06:36:09;;;;;;;11.47;6.30;;;3.30;99.90;;;;;;5035606;28;20025;-72
2023/12/17 06:38:35;;;;;;;10.70;6.10;;;3.20;99.80;;;;;;5034541;28;20036;-72
2023/12/17 06:41:01;;;;;;;14.63;4.97;;;3.20;99.80;;;;;;5034805;28;20032;-72
2023/12/17 06:43:27;;;;;;;16.93;6.30;;;3.20;99.80;;;;;;5034689;28;20021;-73
2023/12/17 06:45:52;;;;;;;9.70;5.17;;;3.10;99.60;;;;;;5034925;28;20032;-72
2023/12/17 06:48:18;;;;;;;9.13;5.07;;;3.10;99.70;;;;;;5032354;28;20116;-73
2023/12/17 06:50:44;;;;;;;10.13;5.60;;;3.10;99.60;;;;;;5032114;28;20036;-73
2023/12/17 06:53:15;;;;;;;10.33;4.57;;;3.00;99.80;;;;;;5031997;28;20018;-72
2023/12/17 06:55:42;;;;;;;8.70;4.87;;;3.10;99.90;;;;;;5033857;28;20048;-73
2023/12/17 06:58:08;;;;;;;7.90;4.23;;;3.00;99.90;;;;;;5015493;28;20091;-72
2023/12/17 07:00:36;;;;;;;10.97;4.37;;;3.00;99.90;;;;;;5031791;28;20026;-73
2023/12/17 07:03:03;;;;;;;8.43;3.67;;;3.00;99.90;;;;;;5031629;28;20418;-73
2023/12/17 07:05:28;;;;;;;9.87;4.43;;;3.00;99.90;;;;;;5034000;28;20092;-73
2023/12/17 07:07:54;;;;;;;10.20;4.67;;;3.10;99.90;;;;;;5033916;28;20134;-73
2023/12/17 07:10:21;;;;;;;12.33;5.40;;;3.10;99.90;;;;;;5034088;28;20025;-73
2023/12/17 07:12:49;;;;;;;11.10;5.33;;;3.10;99.90;;;;;;5035019;28;20484;-73
2023/12/17 07:15:15;;;;;;;10.40;5.23;;;3.10;99.90;;;;;;5046657;28;20108;-72
2023/12/17 07:17:41;;;;;;;9.93;5.20;;;3.10;99.90;;;;;;5042631;28;20101;-72
2023/12/17 07:20:10;;;;;;;9.90;5.00;;;3.10;99.90;;;;;;5033732;28;20033;-73
2023/12/17 07:22:36;;;;;;;11.13;4.97;;;3.10;99.90;;;;;;5034149;28;20060;-74
2023/12/17 07:25:03;;;;;;;14.00;5.70;;;3.10;99.90;;;;;;5033931;28;20061;-72
2023/12/17 07:27:28;;;;;;;11.47;5.07;;;3.10;99.90;;;;;;5033792;28;20028;-73
2023/12/17 07:29:54;;;;;;;11.80;5.37;;;3.20;99.90;;;;;;5042855;28;20532;-72
2023/12/17 07:32:20;;;;;;;15.80;5.40;;;3.20;99.90;;;;;;5047983;28;20111;-73
2023/12/17 07:34:46;;;;;;;11.47;6.10;;;3.20;99.90;;;;;;5034082;28;20030;-72
2023/12/17 07:37:11;;;;;;;12.57;7.20;;;3.20;99.90;;;;;;5033223;28;20116;-73
2023/12/17 07:39:37;;;;;;;16.20;8.73;;;3.20;99.90;;;;;;5033254;28;20037;-72
2023/12/17 07:42:03;;;;;;;12.77;6.40;;;3.30;99.90;;;;;;5015648;28;20037;-73
2023/12/17 07:44:30;;;;;;;16.33;7.50;;;3.30;99.90;;;;;;5024578;28;20032;-72
2023/12/17 07:46:56;;;;;;;16.03;8.17;;;3.40;99.90;;;;;;5061365;28;20362;-72
2023/12/17 07:49:22;;;;;;;18.90;8.20;;;3.40;99.90;;;;;;5057856;28;20552;-73
2023/12/17 07:51:49;;;;;;;16.70;8.83;;;3.40;99.90;;;;;;5056604;28;20111;-73
2023/12/17 07:54:15;;;;;;;15.00;8.17;;;3.40;99.90;;;;;;5063288;28;20043;-72
2023/12/17 07:56:41;;;;;;;13.27;8.17;;;3.50;99.90;;;;;;5062278;28;20469;-72
2023/12/17 07:59:06;;;;;;;14.43;9.17;;;3.50;99.90;;;;;;5062422;28;20036;-72
2023/12/17 08:01:34;;;;;;;15.13;9.80;;;3.60;99.90;;;;;;5063616;28;20033;-74
2023/12/17 08:04:00;;;;;;;18.90;10.37;;;3.60;99.90;;;;;;5059198;28;20128;-73
2023/12/17 08:06:26;;;;;;;18.53;10.53;;;3.70;99.90;;;;;;5062500;28;20025;-73
2023/12/17 08:08:56;;;;;;;17.70;10.53;;;3.80;99.90;;;;;;5063183;28;20071;-71
2023/12/17 08:11:22;;;;;;;17.97;10.77;;;3.80;99.90;;;;;;5059548;28;20021;-72
2023/12/17 08:13:48;;;;;;;14.73;9.37;;;3.90;99.90;;;;;;5053611;28;20021;-72
2023/12/17 08:16:14;;;;;;;18.77;10.10;;;3.90;99.90;;;;;;5052405;28;20470;-72
2023/12/17 08:18:40;;;;;;;22.67;10.63;;;4.00;99.90;;;;;;5051485;28;20044;-73
2023/12/17 08:21:06;;;;;;;19.73;11.13;;;4.10;99.90;;;;;;5051073;28;20033;-72
2023/12/17 08:23:32;;;;;;;18.20;11.00;;;4.20;99.90;;;;;;5043474;28;20029;-72
2023/12/17 08:25:58;;;;;;;17.93;9.77;;;4.20;99.90;;;;;;5030761;28;20090;-72
2023/12/17 08:28:24;;;;;;;12.60;8.60;;;4.20;99.90;;;;;;5030649;28;20727;-72
2023/12/17 08:30:50;;;;;;;16.97;9.50;;;4.30;99.60;;;;;;5030462;28;20645;-72
2023/12/17 08:33:16;;;;;;;18.13;10.37;;;4.40;99.50;;;;;;5030438;28;20393;-72
2023/12/17 08:35:44;;;;;;;17.53;8.90;;;4.40;99.50;;;;;;5031748;28;20048;-72
2023/12/17 08:38:10;;;;;;;16.03;8.83;;;4.50;99.50;;;;;;5031500;28;20466;-72
2023/12/17 08:40:38;;;;;;;14.57;8.10;;;4.50;99.60;;;;;;5031453;28;20040;-72
2023/12/17 08:43:06;;;;;;;16.33;7.50;;;4.50;99.60;;;;;;5031399;28;20033;-73
2023/12/17 08:45:32;;;;;;;12.53;6.97;;;4.50;99.60;;;;;;5031473;28;20026;-73
2023/12/17 08:47:58;;;;;;;14.57;8.30;;;4.60;99.40;;;;;;5032747;28;20033;-72
2023/12/17 08:50:24;;;;;;;15.00;7.27;;;4.60;99.30;;;;;;5032670;28;20497;-72
2023/12/17 08:52:51;;;;;;;13.57;7.70;;;4.70;99.40;;;;;;5032619;28;20109;-72
2023/12/17 08:55:17;;;;;;;11.37;6.67;;;4.70;99.30;;;;;;5032678;28;20030;-71
2023/12/17 08:57:42;;;;;;;13.17;6.67;;;4.80;99.20;;;;;;5032548;28;20034;-72
2023/12/17 09:00:09;;;;;;;12.23;6.57;;;4.80;99.10;;;;;;5032587;28;20037;-72
2023/12/17 09:02:35;;;;;;;11.50;6.60;;;4.80;99.20;;;;;;5032605;28;20104;-72
2023/12/17 09:05:01;;;;;;;13.70;7.10;;;4.90;99.10;;;;;;5032605;28;20113;-73
2023/12/17 09:07:27;;;;;;;9.67;6.33;;;4.90;99.10;;;;;;5035409;28;20080;-72
2023/12/17 09:09:53;;;;;;;10.30;6.00;;;5.00;99.10;;;;;;5036519;28;20053;-73
2023/12/17 09:12:19;;;;;;;9.70;6.07;;;5.00;99.10;;;;;;5036667;28;20022;-72
2023/12/17 09:14:45;;;;;;;15.60;6.00;;;5.00;99.00;;;;;;5036283;28;20026;-72
2023/12/17 09:17:11;;;;;;;12.60;6.07;;;5.10;98.90;;;;;;5018498;28;20021;-72
2023/12/17 09:19:36;;;;;;;11.70;6.07;;;5.10;98.90;;;;;;5036438;28;20508;-72
2023/12/17 09:22:02;;;;;;;9.27;6.30;;;5.20;98.90;;;;;;5036632;28;20033;-72
2023/12/17 09:24:28;;;;;;;12.53;6.47;;;5.30;99.00;;;;;;5036512;28;20029;-72
2023/12/17 09:26:54;;;;;;;12.77;6.50;;;5.30;98.80;;;;;;5036406;28;20029;-73
2023/12/17 09:29:20;;;;;;;12.20;6.33;;;5.40;98.80;;;;;;5018504;28;21188;-72
2023/12/17 09:31:47;;;;;;;10.90;6.43;;;5.40;98.90;;;;;;5036316;28;20026;-72
2023/12/17 09:34:14;;;;;;;13.53;6.17;;;5.50;98.90;;;;;;5033613;28;20082;-72
2023/12/17 09:36:41;;;;;;;11.20;5.83;;;5.60;99.00;;;;;;5033342;28;20094;-72
2023/12/17 09:39:07;;;;;;;10.70;6.57;;;5.60;98.80;;;;;;5034859;28;20080;-72
2023/12/17 09:41:33;;;;;;;9.53;5.30;;;5.70;98.60;;;;;;5035907;28;20033;-72
2023/12/17 09:43:59;;;;;;;14.00;5.70;;;5.70;98.50;;;;;;5036173;28;20025;-72
2023/12/17 09:46:25;;;;;;;7.33;4.57;;;5.80;98.40;;;;;;5036258;28;20029;-73
2023/12/17 09:48:51;;;;;;;10.60;5.27;;;5.90;98.10;;;;;;5036006;28;20026;-72
2023/12/17 09:51:18;;;;;;;9.10;5.10;;;5.90;97.90;;;;;;5035834;28;20021;-73
2023/12/17 09:53:44;;;;;;;12.67;6.07;;;6.00;97.70;;;;;;5035760;28;20053;-73
2023/12/17 09:56:13;;;;;;;9.80;5.90;;;6.00;97.40;;;;;;5036079;28;20029;-72
2023/12/17 09:58:39;;;;;;;9.93;6.23;;;6.10;97.40;;;;;;5033713;28;20069;-72
2023/12/17 10:01:05;;;;;;;12.30;6.63;;;6.20;97.40;;;;;;5032905;28;20087;-73
2023/12/17 10:03:33;;;;;;;11.27;6.17;;;6.20;97.50;;;;;;5032758;28;20100;-73
2023/12/17 10:05:59;;;;;;;12.63;6.73;;;6.30;97.50;;;;;;5038690;28;20036;-73
2023/12/17 10:08:24;;;;;;;11.30;6.43;;;6.40;97.50;;;;;;5062909;23;20099;-72
2023/12/17 10:10:50;;;;;;;11.37;5.70;;;6.40;97.40;;;;;;5054886;28;20101;-72
2023/12/17 10:13:22;;;;;;;15.83;6.37;;;6.50;97.20;;;;;;5055208;28;20021;-72
2023/12/17 10:15:53;;;;;;;10.70;5.33;;;6.60;97.10;;;;;;5055391;28;20447;-72
2023/12/17 10:18:19;;;;;;;7.60;4.60;;;6.70;97.40;;;;;;5049762;28;20032;-73
2023/12/17 10:20:46;;;;;;;9.60;5.07;;;6.70;97.20;;;;;;5052915;28;20028;-72
2023/12/17 10:23:12;;;;;;;11.27;5.90;;;6.80;96.90;;;;;;5055139;28;20384;-72
2023/12/17 10:25:39;;;;;;;11.13;5.13;;;6.80;96.60;;;;;;5054994;28;20381;-73
2023/12/17 10:28:05;;;;;;;13.00;5.37;;;6.90;96.60;;;;;;5054749;28;20072;-73
2023/12/17 10:30:33;;;;;;;13.37;4.83;;;7.00;96.50;;;;;;5055063;28;20074;-72
2023/12/17 10:33:00;;;;;;;10.87;4.80;;;7.10;96.50;;;;;;5054899;28;20029;-72
2023/12/17 10:35:29;;;;;;;9.17;4.50;;;7.10;96.30;;;;;;5054810;28;20029;-73
2023/12/17 10:38:08;;;;;;;11.00;4.70;;;7.20;96.20;;;;;;5036924;28;20435;-73
2023/12/17 10:40:35;;;;;;;14.43;4.40;;;7.30;95.90;;;;;;5054903;28;20032;-73
2023/12/17 10:43:04;;;;;;;11.50;5.07;;;7.30;95.70;;;;;;5055013;28;20025;-72
2023/12/17 10:45:31;;;;;;;8.73;4.60;;;7.40;95.50;;;;;;5054809;28;20534;-73
2023/12/17 10:47:58;;;;;;;10.93;4.90;;;7.50;95.50;;;;;;5054661;28;20540;-73
2023/12/17 10:50:26;;;;;;;12.40;5.00;;;7.60;95.40;;;;;;5054936;28;20092;-72
2023/12/17 10:52:52;;;;;;;8.77;4.63;;;7.70;95.20;;;;;;5054777;28;20029;-73
2023/12/17 10:55:18;;;;;;;10.03;4.60;;;7.80;95.10;;;;;;5054581;28;20032;-72
2023/12/17 10:58:15;;;;;;;10.13;4.67;;;7.80;94.80;;;;;;5054730;28;20039;-73
2023/12/17 11:00:42;;;;;;;8.10;4.30;;;7.90;94.70;;;;;;5053681;28;20409;-72
2023/12/17 11:03:09;;;;;;;6.87;3.70;;;8.00;94.10;;;;;;5054420;28;20021;-72
2023/12/17 11:05:35;;;;;;;7.37;3.40;;;8.00;93.40;;;;;;5054332;28;20535;-72
2023/12/17 11:08:01;;;;;;;7.80;3.37;;;8.00;92.80;;;;;;5054044;28;20033;-72
2023/12/17 11:10:27;;;;;;;11.93;3.70;;;8.10;92.60;;;;;;5053878;28;20066;-72
2023/12/17 11:12:54;;;;;;;7.57;3.17;;;8.20;92.60;;;;;;5054396;28;20385;-72
2023/12/17 11:15:21;;;;;;;7.03;3.43;;;8.20;92.00;;;;;;5054449;28;20025;-72
2023/12/17 11:17:51;;;;;;;14.33;3.93;;;8.30;91.90;;;;;;5036881;28;20439;-72
2023/12/17 11:20:17;;;;;;;6.83;3.60;;;8.40;91.90;;;;;;5054136;28;20033;-72
2023/12/17 11:22:43;;;;;;;7.20;3.50;;;8.40;91.80;;;;;;5054083;28;20036;-72
2023/12/17 11:25:12;;;;;;;10.30;3.70;;;8.40;91.90;;;;;;5053966;28;20021;-72
2023/12/17 11:27:42;;;;;;;8.17;3.50;;;8.50;91.60;;;;;;5053691;28;20097;-72
2023/12/17 11:30:26;;;;;;;9.90;3.60;;;8.60;91.20;;;;;;5052778;28;20032;-72
2023/12/17 11:32:52;;;;;;;8.97;3.50;;;8.60;90.90;;;;;;5053667;28;20064;-72
2023/12/17 11:35:18;;;;;;;6.60;3.33;;;8.70;90.40;;;;;;5053432;28;20445;-72
2023/12/17 11:37:44;;;;;;;8.43;3.60;;;8.80;90.10;;;;;;5035971;28;20511;-73
2023/12/17 11:40:10;;;;;;;7.53;2.70;;;8.80;89.80;;;;;;5053779;28;20041;-72
2023/12/17 11:42:40;;;;;;;6.23;3.33;;;8.90;89.20;;;;;;5044411;28;20025;-72
2023/12/17 11:45:06;;;;;;;9.90;3.63;;;9.00;89.70;;;;;;5032944;28;20051;-73
2023/12/17 11:47:32;;;;;;;7.07;3.60;;;9.00;89.70;;;;;;5033398;28;20485;-72
2023/12/17 11:50:02;;;;;;;8.57;3.17;;;9.10;88.80;;;;;;5056996;28;20031;-72
2023/12/17 11:52:29;;;;;;;7.17;3.17;;;9.20;88.30;;;;;;5063360;28;20028;-72
2023/12/17 11:54:59;;;;;;;6.70;3.40;;;9.20;88.10;;;;;;5061521;28;20040;-72
2023/12/17 11:57:30;;;;;;;12.30;4.47;;;9.20;87.40;;;;;;5061717;28;20375;-71
2023/12/17 11:59:56;;;;;;;7.47;3.63;;;9.30;87.00;;;;;;5035972;28;20040;-72
2023/12/17 12:02:26;;;;;;;7.40;3.70;;;9.30;86.60;;;;;;5041275;28;20024;-72
2023/12/17 12:04:54;;;;;;;9.93;3.80;;;9.40;86.40;;;;;;5063544;28;20020;-72
2023/12/17 12:07:20;;;;;;;7.90;3.60;;;9.40;86.50;;;;;;5060437;28;20021;-73
2023/12/17 12:09:48;;;;;;;7.50;4.00;;;9.40;87.00;;;;;;5052719;28;20095;-72
2023/12/17 12:12:23;;;;;;;6.83;3.73;;;9.40;87.30;;;;;;5052895;28;20036;-73
2023/12/17 12:14:50;;;;;;;7.03;3.63;;;9.40;87.10;;;;;;5052942;28;20021;-73
2023/12/17 12:17:35;;;;;;;8.60;3.60;;;9.40;86.40;;;;;;5052813;28;20415;-73
2023/12/17 12:20:01;;;;;;;7.03;3.50;;;9.50;85.80;;;;;;5055176;28;20395;-71
2023/12/17 12:22:28;;;;;;;7.13;3.70;;;9.50;85.60;;;;;;5061421;28;20096;-72
2023/12/17 12:24:55;;;;;;;7.47;3.90;;;9.50;85.40;;;;;;5058194;28;20480;-70
2023/12/17 12:27:21;;;;;;;9.83;3.77;;;9.60;85.20;;;;;;5058295;28;20032;-72
2023/12/17 12:29:48;;;;;;;13.00;4.00;;;9.60;84.90;;;;;;5043050;28;20025;-72
2023/12/17 12:32:32;;;;;;;9.40;3.77;;;9.60;84.90;;;;;;5061944;28;20036;-72
2023/12/17 12:34:58;;;;;;;7.10;3.77;;;9.60;85.00;;;;;;5065446;28;20043;-72
2023/12/17 12:37:50;;;;;;;10.63;4.13;;;9.70;85.00;;;;;;5058491;28;20029;-72
2023/12/17 12:40:16;;;;;;;9.63;4.37;;;9.70;85.30;;;;;;5053256;28;20535;-71
2023/12/17 12:42:41;;;;;;;10.40;4.33;;;9.70;85.20;;;;;;5060830;28;20052;-72
2023/12/17 12:45:10;;;;;;;8.03;3.67;;;9.80;85.10;;;;;;5061993;28;20099;-73